createdAt,value
2019-03-19T00:00:45.865Z,22.90
2019-03-19T00:03:15.387Z,22.83
2019-03-19T00:05:44.779Z,18.50
2019-03-19T00:08:14.219Z,20.77
2019-03-19T00:10:43.633Z,23.80
2019-03-19T00:13:13.074Z,22.53
2019-03-19T00:15:42.478Z,25.07
2019-03-19T00:18:11.882Z,20.30
2019-03-19T00:20:41.309Z,22.93
2019-03-19T00:23:11.005Z,21.83
2019-03-19T00:25:40.820Z,25.50
2019-03-19T00:28:10.243Z,19.97
2019-03-19T00:30:39.655Z,20.47
2019-03-19T00:33:09.085Z,21.63
2019-03-19T00:35:38.493Z,22.83
2019-03-19T00:38:07.921Z,16.83
2019-03-19T00:40:37.398Z,19.70
2019-03-19T00:43:06.960Z,16.77
2019-03-19T00:45:36.372Z,17.10
2019-03-19T00:48:05.855Z,14.50
2019-03-19T00:50:35.280Z,20.07
2019-03-19T00:53:05.138Z,16.93
2019-03-19T00:55:40.785Z,24.23
2019-03-19T00:58:05.830Z,16.33
2019-03-19T01:00:35.315Z,13.07
2019-03-19T01:03:04.811Z,11.97
2019-03-19T01:05:34.205Z,15.33
2019-03-19T01:08:03.708Z,19.03
2019-03-19T01:10:33.115Z,15.47
2019-03-19T01:13:02.690Z,19.20
2019-03-19T01:15:32.188Z,19.00
2019-03-19T01:18:01.665Z,21.77
2019-03-19T01:20:31.118Z,28.20
2019-03-19T01:23:00.895Z,23.27
2019-03-19T01:25:30.315Z,27.63
2019-03-19T01:27:59.729Z,18.13
2019-03-19T01:30:29.123Z,24.60
2019-03-19T01:32:58.536Z,20.53
2019-03-19T01:35:27.970Z,19.00
2019-03-19T01:37:57.400Z,17.30
2019-03-19T01:40:26.808Z,17.03
2019-03-19T01:42:56.246Z,15.87
2019-03-19T01:45:25.686Z,12.43
2019-03-19T01:47:55.084Z,16.57
2019-03-19T01:50:24.521Z,20.20
2019-03-19T01:52:53.922Z,17.53
2019-03-19T01:55:25.498Z,15.20
2019-03-19T01:57:54.496Z,14.57
2019-03-19T02:00:23.897Z,12.83
2019-03-19T02:02:53.332Z,21.97
2019-03-19T02:05:22.737Z,21.03
2019-03-19T02:07:52.157Z,15.67
2019-03-19T02:10:21.585Z,23.77
2019-03-19T02:12:50.996Z,15.77
2019-03-19T02:15:20.562Z,18.33
2019-03-19T02:17:49.986Z,16.97
2019-03-19T02:20:20.127Z,16.73
2019-03-19T02:22:49.560Z,15.07
2019-03-19T02:25:18.983Z,11.90
2019-03-19T02:27:48.424Z,14.57
2019-03-19T02:30:18.365Z,15.97
2019-03-19T02:33:07.513Z,17.60
2019-03-19T02:35:37.331Z,12.97
2019-03-19T02:38:06.744Z,14.80
2019-03-19T02:40:36.190Z,17.27
2019-03-19T02:43:06.027Z,15.70
2019-03-19T02:45:35.469Z,17.67
2019-03-19T02:48:05.021Z,27.73
2019-03-19T02:50:34.418Z,18.20
2019-03-19T02:53:03.904Z,20.17
2019-03-19T02:55:33.310Z,20.37
2019-03-19T02:58:02.758Z,11.47
2019-03-19T03:00:32.182Z,17.13
2019-03-19T03:03:01.650Z,17.20
2019-03-19T03:05:31.146Z,18.80
2019-03-19T03:08:00.565Z,21.57
2019-03-19T03:10:30.000Z,20.60
2019-03-19T03:12:59.400Z,17.70
2019-03-19T03:15:28.842Z,21.30
2019-03-19T03:17:58.271Z,19.50
2019-03-19T03:20:27.753Z,20.60
2019-03-19T03:22:57.175Z,20.57
2019-03-19T03:25:26.745Z,25.87
2019-03-19T03:27:56.544Z,18.53
2019-03-19T03:30:26.021Z,28.37
2019-03-19T03:32:55.748Z,22.07
2019-03-19T03:35:25.205Z,26.27
2019-03-19T03:37:54.632Z,29.83
2019-03-19T03:40:24.165Z,24.07
2019-03-19T03:42:53.701Z,23.83
2019-03-19T03:45:23.162Z,23.67
2019-03-19T03:47:52.674Z,18.43
2019-03-19T03:50:22.082Z,23.20
2019-03-19T03:52:51.507Z,21.20
2019-03-19T03:55:21.473Z,22.00
2019-03-19T03:57:51.289Z,20.73
2019-03-19T04:00:23.385Z,19.17
2019-03-19T04:02:52.865Z,15.23
2019-03-19T04:05:22.426Z,21.47
2019-03-19T04:07:51.851Z,17.73
2019-03-19T04:10:21.356Z,15.97
2019-03-19T04:12:50.775Z,23.97
2019-03-19T04:15:20.376Z,19.03
2019-03-19T04:17:50.158Z,18.07
2019-03-19T04:20:20.089Z,19.73
2019-03-19T04:22:49.576Z,15.00
2019-03-19T04:25:19.065Z,15.43
2019-03-19T04:27:48.481Z,14.23
2019-03-19T04:30:20.694Z,10.07
2019-03-19T04:32:50.186Z,13.17
2019-03-19T04:35:19.602Z,14.73
2019-03-19T04:37:49.015Z,14.43
2019-03-19T04:40:18.506Z,15.27
2019-03-19T04:42:47.946Z,14.33
2019-03-19T04:45:18.004Z,14.67
2019-03-19T04:47:47.428Z,18.83
2019-03-19T04:50:17.704Z,17.17
2019-03-19T04:52:47.204Z,14.80
2019-03-19T04:55:17.429Z,23.13
2019-03-19T04:57:46.849Z,15.50
2019-03-19T05:00:18.791Z,15.37
2019-03-19T05:02:48.316Z,19.17
2019-03-19T05:05:17.821Z,22.23
2019-03-19T05:07:47.251Z,21.63
2019-03-19T05:10:18.078Z,20.40
2019-03-19T05:12:47.897Z,23.97
2019-03-19T05:15:17.314Z,26.93
2019-03-19T05:17:46.826Z,27.27
2019-03-19T05:20:20.009Z,18.57
2019-03-19T05:22:49.436Z,20.13
2019-03-19T05:25:19.067Z,18.63
2019-03-19T05:27:48.463Z,16.60
2019-03-19T05:30:19.703Z,21.93
2019-03-19T05:32:49.129Z,15.93
2019-03-19T05:35:18.714Z,19.87
2019-03-19T05:37:48.130Z,15.50
2019-03-19T05:40:18.285Z,23.20
2019-03-19T05:42:47.741Z,28.90
2019-03-19T05:45:17.596Z,28.53
2019-03-19T05:47:47.112Z,22.10
2019-03-19T05:50:24.818Z,49.47
2019-03-19T05:52:54.254Z,41.77
2019-03-19T05:55:23.666Z,34.17
2019-03-19T05:57:53.137Z,44.33
2019-03-19T06:00:27.018Z,37.40
2019-03-19T06:02:56.635Z,35.27
2019-03-19T06:05:26.088Z,50.73
2019-03-19T06:07:55.502Z,45.67
2019-03-19T06:10:26.012Z,44.30
2019-03-19T06:12:55.732Z,38.03
2019-03-19T06:15:25.155Z,35.30
2019-03-19T06:17:54.564Z,32.57
2019-03-19T06:20:24.048Z,27.77
2019-03-19T06:22:53.531Z,28.97
2019-03-19T06:25:23.061Z,26.53
2019-03-19T06:28:00.275Z,33.87
2019-03-19T06:30:25.299Z,30.37
2019-03-19T06:32:54.721Z,29.20
2019-03-19T06:35:24.148Z,34.40
2019-03-19T06:37:53.568Z,35.90
2019-03-19T06:40:23.517Z,32.03
2019-03-19T06:42:53.036Z,29.07
2019-03-19T06:45:23.452Z,26.77
2019-03-19T06:47:53.125Z,38.03
2019-03-19T06:50:23.060Z,37.27
2019-03-19T06:52:52.560Z,29.40
2019-03-19T06:55:22.302Z,35.70
2019-03-19T06:57:51.741Z,26.97
2019-03-19T07:00:22.604Z,27.67
2019-03-19T07:02:52.091Z,37.20
2019-03-19T07:05:22.575Z,38.30
2019-03-19T07:07:52.070Z,29.97
2019-03-19T07:10:22.322Z,32.67
2019-03-19T07:12:51.832Z,34.97
2019-03-19T07:15:24.660Z,28.70
2019-03-19T07:17:54.504Z,34.30
2019-03-19T07:20:26.821Z,38.00
2019-03-19T07:22:56.280Z,36.37
2019-03-19T07:25:25.798Z,40.80
2019-03-19T07:27:55.204Z,51.73
2019-03-19T07:30:27.774Z,41.53
2019-03-19T07:32:57.227Z,42.93
2019-03-19T07:35:26.626Z,39.60
2019-03-19T07:37:56.051Z,43.37
2019-03-19T07:40:25.603Z,33.03
2019-03-19T07:42:55.044Z,38.97
2019-03-19T07:45:26.045Z,38.07
2019-03-19T07:47:55.504Z,32.83
2019-03-19T07:50:25.418Z,32.40
2019-03-19T07:52:54.855Z,37.87
2019-03-19T07:55:24.402Z,39.47
2019-03-19T07:57:53.835Z,32.10
2019-03-19T08:00:23.907Z,33.03
2019-03-19T08:02:53.429Z,33.53
2019-03-19T08:05:32.561Z,28.83
2019-03-19T08:07:54.016Z,36.23
2019-03-19T08:10:23.513Z,34.57
2019-03-19T08:12:52.946Z,37.17
2019-03-19T08:15:22.939Z,34.63
2019-03-19T08:17:52.370Z,28.60
2019-03-19T08:20:21.800Z,39.53
2019-03-19T08:22:51.241Z,31.07
2019-03-19T08:25:20.681Z,35.07
2019-03-19T08:27:50.473Z,29.93
2019-03-19T08:30:25.028Z,38.10
2019-03-19T08:32:55.004Z,31.93
2019-03-19T08:35:24.455Z,42.53
2019-03-19T08:37:53.915Z,30.27
2019-03-19T08:40:23.452Z,31.10
2019-03-19T08:42:52.887Z,32.40
2019-03-19T08:45:25.962Z,31.50
2019-03-19T08:47:55.362Z,22.50
2019-03-19T08:50:25.254Z,31.10
2019-03-19T08:52:55.554Z,27.20
2019-03-19T08:55:25.329Z,26.33
2019-03-19T08:57:54.774Z,35.33
2019-03-19T09:00:28.563Z,31.17
2019-03-19T09:02:58.008Z,27.47
2019-03-19T09:05:27.424Z,30.03
2019-03-19T09:07:57.227Z,31.80
2019-03-19T09:10:45.998Z,34.17
2019-03-19T09:13:15.435Z,30.87
2019-03-19T09:15:44.868Z,29.87
2019-03-19T09:18:16.060Z,28.70
2019-03-19T09:20:45.445Z,27.23
2019-03-19T09:23:14.890Z,28.37
2019-03-19T09:25:44.302Z,32.20
2019-03-19T09:28:13.807Z,30.70
2019-03-19T09:30:43.229Z,26.60
2019-03-19T09:33:12.735Z,30.23
2019-03-19T09:35:42.238Z,40.67
2019-03-19T09:38:11.674Z,31.17
2019-03-19T09:40:41.108Z,28.73
2019-03-19T09:43:10.535Z,21.77
2019-03-19T09:45:40.035Z,18.57
2019-03-19T09:48:09.454Z,18.50
2019-03-19T09:50:38.888Z,17.67
2019-03-19T09:53:08.383Z,17.10
2019-03-19T09:55:37.839Z,18.47
2019-03-19T09:58:07.267Z,15.90
2019-03-19T10:00:37.047Z,21.67
2019-03-19T10:03:06.569Z,19.40
2019-03-19T10:05:35.988Z,15.77
2019-03-19T10:08:05.481Z,17.77
2019-03-19T10:10:34.996Z,17.27
2019-03-19T10:13:04.590Z,16.70
2019-03-19T10:15:34.048Z,15.97
2019-03-19T10:18:03.486Z,21.70
2019-03-19T10:20:32.913Z,23.60
2019-03-19T10:23:02.352Z,26.13
2019-03-19T10:25:31.761Z,18.50
2019-03-19T10:28:01.202Z,16.03
2019-03-19T10:30:30.683Z,22.20
2019-03-19T10:33:00.227Z,23.77
2019-03-19T10:35:29.639Z,19.93
2019-03-19T10:37:59.077Z,14.37
2019-03-19T10:40:28.524Z,21.97
2019-03-19T10:42:57.954Z,18.23
2019-03-19T10:45:27.392Z,21.60
2019-03-19T10:47:56.884Z,17.03
2019-03-19T10:50:29.837Z,22.87
2019-03-19T10:52:59.274Z,22.07
2019-03-19T10:55:28.772Z,30.13
2019-03-19T10:57:58.226Z,20.47
2019-03-19T11:00:28.100Z,20.93
2019-03-19T11:02:57.602Z,21.50
2019-03-19T11:05:27.190Z,26.87
2019-03-19T11:07:56.671Z,26.17
2019-03-19T11:10:26.419Z,22.60
2019-03-19T11:12:55.830Z,22.67
2019-03-19T11:15:31.468Z,23.67
2019-03-19T11:18:00.266Z,22.27
2019-03-19T11:20:29.692Z,19.77
2019-03-19T11:22:59.261Z,23.90
2019-03-19T11:25:30.476Z,26.27
2019-03-19T11:28:00.345Z,22.00
2019-03-19T11:30:31.178Z,17.47
2019-03-19T11:33:00.667Z,21.97
2019-03-19T11:35:30.199Z,18.50
2019-03-19T11:37:59.706Z,16.87
2019-03-19T11:40:29.194Z,20.77
2019-03-19T11:42:58.674Z,17.70
2019-03-19T11:45:28.608Z,17.93
2019-03-19T11:47:58.028Z,17.10
2019-03-19T11:50:33.208Z,24.47
2019-03-19T11:53:02.295Z,19.07
2019-03-19T11:55:31.722Z,19.67
2019-03-19T11:58:01.251Z,9.93
2019-03-19T12:00:39.531Z,14.80
2019-03-19T12:03:15.434Z,16.57
2019-03-19T12:05:40.792Z,14.07
2019-03-19T12:08:10.197Z,18.13
2019-03-19T12:10:39.792Z,15.97
2019-03-19T12:13:09.608Z,12.30
2019-03-19T12:15:39.103Z,17.67
2019-03-19T12:18:08.699Z,14.70
2019-03-19T12:20:38.245Z,13.57
2019-03-19T12:23:07.753Z,14.33
2019-03-19T12:25:37.241Z,12.93
2019-03-19T12:28:07.009Z,12.27
2019-03-19T12:30:37.066Z,15.47
2019-03-19T12:33:06.635Z,16.80
2019-03-19T12:35:36.076Z,13.43
2019-03-19T12:38:05.839Z,16.70
2019-03-19T12:40:37.250Z,13.90
2019-03-19T12:43:07.203Z,12.50
2019-03-19T12:45:36.698Z,16.13
2019-03-19T12:48:06.575Z,13.73
2019-03-19T12:50:36.035Z,10.60
2019-03-19T12:53:05.621Z,10.40
2019-03-19T12:55:35.088Z,13.07
2019-03-19T12:58:05.121Z,10.50
2019-03-19T13:00:35.145Z,11.73
2019-03-19T13:03:05.133Z,13.90
2019-03-19T13:05:34.602Z,10.20
2019-03-19T13:08:04.355Z,11.20
2019-03-19T13:10:33.831Z,13.57
2019-03-19T13:13:03.266Z,12.13
2019-03-19T13:15:32.744Z,14.83
2019-03-19T13:18:02.182Z,11.73
2019-03-19T13:20:31.664Z,14.03
2019-03-19T13:23:01.464Z,12.17
2019-03-19T13:25:31.172Z,10.33
2019-03-19T13:28:00.587Z,10.70
2019-03-19T13:30:44.063Z,12.13
2019-03-19T13:33:04.779Z,10.33
2019-03-19T13:35:34.238Z,12.57
2019-03-19T13:38:03.719Z,16.57
2019-03-19T13:40:33.214Z,12.73
2019-03-19T13:43:02.824Z,13.07
2019-03-19T13:45:32.307Z,14.33
2019-03-19T13:48:01.753Z,12.23
2019-03-19T13:50:31.178Z,13.90
2019-03-19T13:53:00.605Z,14.27
2019-03-19T13:55:30.037Z,15.33
2019-03-19T13:57:59.473Z,14.30
2019-03-19T14:00:29.329Z,16.60
2019-03-19T14:02:59.308Z,14.07
2019-03-19T14:05:29.253Z,17.20
2019-03-19T14:07:58.751Z,14.37
2019-03-19T14:10:28.183Z,12.23
2019-03-19T14:12:57.616Z,14.47
2019-03-19T14:15:28.168Z,16.87
2019-03-19T14:17:57.613Z,15.47
2019-03-19T14:20:27.114Z,19.90
2019-03-19T14:22:56.609Z,13.53
2019-03-19T14:25:26.041Z,10.63
2019-03-19T14:27:58.297Z,13.10
2019-03-19T14:30:27.849Z,9.07
2019-03-19T14:32:57.247Z,21.03
2019-03-19T14:35:36.858Z,17.10
2019-03-19T14:37:57.931Z,9.40
2019-03-19T14:40:28.172Z,12.40
2019-03-19T14:43:01.023Z,7.97
2019-03-19T14:45:28.732Z,11.70
2019-03-19T14:47:58.217Z,8.20
2019-03-19T14:50:28.010Z,10.53
2019-03-19T14:52:57.497Z,8.67
2019-03-19T14:55:26.949Z,9.17
2019-03-19T14:57:56.368Z,9.90
2019-03-19T15:00:25.950Z,11.97
2019-03-19T15:02:55.393Z,10.90
2019-03-19T15:05:24.883Z,10.03
2019-03-19T15:07:54.331Z,8.10
2019-03-19T15:10:24.673Z,8.43
2019-03-19T15:12:54.207Z,7.27
2019-03-19T15:15:24.094Z,9.50
2019-03-19T15:17:53.524Z,8.87
2019-03-19T15:20:28.134Z,8.80
2019-03-19T15:22:57.548Z,6.77
2019-03-19T15:25:27.008Z,8.67
2019-03-19T15:27:56.416Z,6.30
2019-03-19T15:30:25.840Z,8.30
2019-03-19T15:32:55.275Z,8.33
2019-03-19T15:35:25.020Z,7.63
2019-03-19T15:37:54.771Z,11.13
2019-03-19T15:40:24.265Z,11.83
2019-03-19T15:42:53.710Z,10.37
2019-03-19T15:45:27.120Z,15.63
2019-03-19T15:47:56.553Z,6.33
2019-03-19T15:50:26.035Z,9.47
2019-03-19T15:52:55.447Z,6.53
2019-03-19T15:55:25.039Z,10.93
2019-03-19T15:57:54.527Z,7.23
2019-03-19T16:00:24.091Z,9.17
2019-03-19T16:02:53.530Z,8.93
2019-03-19T16:05:22.958Z,9.33
2019-03-19T16:07:52.395Z,8.33
2019-03-19T16:10:21.893Z,9.17
2019-03-19T16:12:51.326Z,8.37
2019-03-19T16:15:24.007Z,8.57
2019-03-19T16:17:53.435Z,8.20
2019-03-19T16:20:23.504Z,7.67
2019-03-19T16:22:54.691Z,7.60
2019-03-19T16:25:24.127Z,7.83
2019-03-19T16:27:53.556Z,11.73
2019-03-19T16:30:23.122Z,7.47
2019-03-19T16:32:52.573Z,9.77
2019-03-19T16:35:22.266Z,8.87
2019-03-19T16:37:51.697Z,13.30
2019-03-19T16:40:22.439Z,11.43
2019-03-19T16:42:52.046Z,13.93
2019-03-19T16:45:21.846Z,9.53
2019-03-19T16:47:51.260Z,8.93
2019-03-19T16:50:22.335Z,13.80
2019-03-19T16:52:51.873Z,10.27
2019-03-19T16:55:22.444Z,12.17
2019-03-19T16:57:51.877Z,11.43
2019-03-19T17:00:31.378Z,8.77
2019-03-19T17:03:00.818Z,10.47
2019-03-19T17:05:30.523Z,17.50
2019-03-19T17:08:00.057Z,12.33
2019-03-19T17:10:31.802Z,11.70
2019-03-19T17:13:01.220Z,14.97
2019-03-19T17:15:30.724Z,13.50
2019-03-19T17:18:00.172Z,10.37
2019-03-19T17:20:29.637Z,14.53
2019-03-19T17:22:59.139Z,18.13
2019-03-19T17:25:28.978Z,15.00
2019-03-19T17:27:58.790Z,10.93
2019-03-19T17:30:32.901Z,13.53
2019-03-19T17:33:02.340Z,15.40
2019-03-19T17:35:32.212Z,17.83
2019-03-19T17:38:01.624Z,17.97
2019-03-19T17:40:40.901Z,13.23
2019-03-19T17:43:02.564Z,25.13
2019-03-19T17:45:32.085Z,15.20
2019-03-19T17:48:01.501Z,10.57
2019-03-19T17:50:40.350Z,12.33
2019-03-19T17:53:09.757Z,12.63
2019-03-19T17:55:39.171Z,15.63
2019-03-19T17:58:08.689Z,16.83
2019-03-19T18:00:42.692Z,13.07
2019-03-19T18:03:12.492Z,11.17
2019-03-19T18:05:41.986Z,16.37
2019-03-19T18:08:11.489Z,14.77
2019-03-19T18:10:41.312Z,12.63
2019-03-19T18:13:10.723Z,15.00
2019-03-19T18:15:40.517Z,12.80
2019-03-19T18:18:10.075Z,19.43
2019-03-19T18:20:39.507Z,13.63
2019-03-19T18:23:08.927Z,15.73
2019-03-19T18:25:38.661Z,21.27
2019-03-19T18:28:08.192Z,15.03
2019-03-19T18:30:37.792Z,10.73
2019-03-19T18:33:07.293Z,18.70
2019-03-19T18:35:36.802Z,12.83
2019-03-19T18:38:06.334Z,11.63
2019-03-19T18:40:35.773Z,12.60
2019-03-19T18:43:05.333Z,11.80
2019-03-19T18:45:34.844Z,10.80
2019-03-19T18:48:04.415Z,15.60
2019-03-19T18:50:33.878Z,12.13
2019-03-19T18:53:03.314Z,17.93
2019-03-19T18:55:32.737Z,15.30
2019-03-19T18:58:02.195Z,13.37
2019-03-19T19:00:31.661Z,13.30
2019-03-19T19:03:01.087Z,12.60
2019-03-19T19:05:30.529Z,12.80
2019-03-19T19:07:59.936Z,11.07
2019-03-19T19:10:29.372Z,14.97
2019-03-19T19:12:58.792Z,16.73
2019-03-19T19:15:28.231Z,18.60
2019-03-19T19:17:57.635Z,14.63
2019-03-19T19:20:27.071Z,15.73
2019-03-19T19:22:56.573Z,12.80
2019-03-19T19:25:27.142Z,18.50
2019-03-19T19:27:56.619Z,19.17
2019-03-19T19:30:33.073Z,14.70
2019-03-19T19:33:02.854Z,14.73
2019-03-19T19:35:32.696Z,21.47
2019-03-19T19:38:03.450Z,18.00
2019-03-19T19:40:33.127Z,18.53
2019-03-19T19:43:02.599Z,24.47
2019-03-19T19:45:32.030Z,18.93
2019-03-19T19:48:01.426Z,18.57
2019-03-19T19:50:30.846Z,21.33
2019-03-19T19:53:00.289Z,25.47
2019-03-19T19:55:29.717Z,23.23
2019-03-19T19:57:59.211Z,23.60
2019-03-19T20:00:28.657Z,22.77
2019-03-19T20:02:58.085Z,19.13
2019-03-19T20:05:27.523Z,21.60
2019-03-19T20:07:56.926Z,19.43
2019-03-19T20:10:27.903Z,16.73
2019-03-19T20:12:57.398Z,18.80
2019-03-19T20:15:26.893Z,22.10
2019-03-19T20:17:56.347Z,24.00
2019-03-19T20:20:31.296Z,27.50
2019-03-19T20:23:00.833Z,19.07
2019-03-19T20:25:30.320Z,23.17
2019-03-19T20:27:59.735Z,26.90
2019-03-19T20:30:29.782Z,27.50
2019-03-19T20:32:59.230Z,23.53
2019-03-19T20:35:28.769Z,21.17
2019-03-19T20:37:58.473Z,18.57
2019-03-19T20:40:28.334Z,23.30
2019-03-19T20:42:57.782Z,19.57
2019-03-19T20:45:29.389Z,21.80
2019-03-19T20:47:58.837Z,29.40
2019-03-19T20:50:40.145Z,23.03
2019-03-19T20:53:09.656Z,21.93
2019-03-19T20:55:39.139Z,21.30
2019-03-19T20:58:08.544Z,24.20
2019-03-19T21:00:37.999Z,27.00
2019-03-19T21:03:07.481Z,25.20
2019-03-19T21:05:36.931Z,28.70
2019-03-19T21:08:06.522Z,26.27
2019-03-19T21:10:35.955Z,23.90
2019-03-19T21:13:08.867Z,23.23
2019-03-19T21:15:38.365Z,26.97
2019-03-19T21:18:07.881Z,20.20
2019-03-19T21:20:37.377Z,19.80
2019-03-19T21:23:06.814Z,21.90
2019-03-19T21:25:36.322Z,21.10
2019-03-19T21:28:13.547Z,24.90
2019-03-19T21:30:37.027Z,19.30
2019-03-19T21:33:06.443Z,21.80
2019-03-19T21:35:35.891Z,22.90
2019-03-19T21:38:05.365Z,23.90
2019-03-19T21:40:34.851Z,23.17
2019-03-19T21:43:04.355Z,27.77
2019-03-19T21:45:33.838Z,23.37
2019-03-19T21:48:03.562Z,25.40
2019-03-19T21:50:33.421Z,25.83
2019-03-19T21:53:03.182Z,21.03
2019-03-19T21:55:32.664Z,25.90
2019-03-19T21:58:02.095Z,23.97
2019-03-19T22:00:31.528Z,25.03
2019-03-19T22:03:00.933Z,26.13
2019-03-19T22:05:30.410Z,22.17
2019-03-19T22:07:59.853Z,21.27
2019-03-19T22:10:29.997Z,26.57
2019-03-19T22:12:59.446Z,27.57
2019-03-19T22:15:29.103Z,28.03
2019-03-19T22:17:58.533Z,25.40
2019-03-19T22:20:27.948Z,21.40
2019-03-19T22:22:57.389Z,29.73
2019-03-19T22:25:26.826Z,23.73
2019-03-19T22:27:56.338Z,21.93
2019-03-19T22:30:25.777Z,26.03
2019-03-19T22:32:55.462Z,25.60
2019-03-19T22:35:24.881Z,23.77
2019-03-19T22:37:54.310Z,20.60
2019-03-19T22:40:23.724Z,25.57
2019-03-19T22:42:53.169Z,28.00
2019-03-19T22:45:22.657Z,24.77
2019-03-19T22:47:52.096Z,25.90
2019-03-19T22:50:21.587Z,28.90
2019-03-19T22:52:51.008Z,25.00
2019-03-19T22:55:28.647Z,21.37
2019-03-19T22:57:51.659Z,26.87
2019-03-19T23:00:37.629Z,26.90
2019-03-19T23:03:07.941Z,24.90
2019-03-19T23:05:37.804Z,25.23
2019-03-19T23:08:07.372Z,26.53
2019-03-19T23:10:36.941Z,28.53
2019-03-19T23:13:07.026Z,28.33
2019-03-19T23:15:36.565Z,25.00
2019-03-19T23:18:06.244Z,28.40
2019-03-19T23:20:35.813Z,27.60
2019-03-19T23:23:05.677Z,24.40
2019-03-19T23:25:35.187Z,25.10
2019-03-19T23:28:04.931Z,26.27
2019-03-19T23:30:34.499Z,25.07
2019-03-19T23:33:03.923Z,23.17
2019-03-19T23:35:33.328Z,24.07
2019-03-19T23:38:02.830Z,24.23
2019-03-19T23:40:32.365Z,24.37
2019-03-19T23:43:01.803Z,19.37
2019-03-19T23:45:31.301Z,25.37
2019-03-19T23:48:00.766Z,25.13
2019-03-19T23:50:30.225Z,24.93
2019-03-19T23:52:59.641Z,21.20
2019-03-19T23:55:29.073Z,21.17
2019-03-19T23:57:58.565Z,25.50
